createdAt,value
2022-11-04T04:46:40.036Z,3.90
2022-11-04T04:49:07.991Z,2.55
2022-11-04T04:51:40.167Z,2.28
2022-11-04T04:54:07.420Z,1.63
2022-11-04T04:56:34.137Z,1.25
2022-11-04T04:59:00.861Z,3.08
2022-11-04T05:01:27.985Z,1.25
2022-11-04T05:03:54.822Z,2.17
2022-11-04T05:06:21.529Z,3.83
2022-11-04T05:08:48.204Z,3.20
2022-11-04T05:11:14.989Z,1.95
2022-11-04T05:13:41.774Z,2.72
2022-11-04T05:16:10.803Z,3.10
2022-11-04T05:18:37.984Z,2.67
2022-11-04T05:21:10.462Z,1.00
2022-11-04T05:23:37.192Z,1.15
2022-11-04T05:26:04.337Z,1.88
2022-11-04T05:28:31.226Z,2.65
2022-11-04T05:30:58.104Z,1.00
2022-11-04T05:33:24.778Z,2.88
2022-11-04T05:35:51.464Z,1.85
2022-11-04T05:38:18.197Z,2.10
2022-11-04T05:40:44.906Z,1.92
2022-11-04T05:43:11.760Z,2.15
2022-11-04T05:45:38.634Z,2.05
2022-11-04T05:48:05.680Z,2.88
2022-11-04T05:50:34.401Z,1.58
2022-11-04T05:53:01.541Z,2.25
2022-11-04T05:55:28.713Z,2.03
2022-11-04T05:57:57.744Z,3.17
2022-11-04T06:00:24.898Z,2.17
2022-11-04T06:02:51.633Z,3.10
2022-11-04T06:05:18.340Z,2.53
2022-11-04T06:07:45.049Z,2.35
2022-11-04T06:10:11.857Z,2.65
2022-11-04T06:12:38.597Z,1.90
2022-11-04T06:15:05.954Z,1.77
2022-11-04T06:17:32.705Z,2.30
2022-11-04T06:19:59.419Z,1.80
2022-11-04T06:22:26.285Z,2.10
2022-11-04T06:24:53.025Z,1.75
2022-11-04T06:27:19.733Z,3.85
2022-11-04T06:29:47.169Z,2.58
2022-11-04T06:32:16.166Z,4.32
2022-11-04T06:34:43.042Z,1.50
2022-11-04T06:37:10.294Z,2.45
2022-11-04T06:39:37.163Z,2.65
2022-11-04T06:42:04.763Z,2.20
2022-11-04T06:44:33.747Z,1.42
2022-11-04T06:47:00.497Z,2.38
2022-11-04T06:49:27.236Z,2.85
2022-11-04T06:51:53.878Z,2.35
2022-11-04T06:54:20.585Z,3.10
2022-11-04T06:56:47.467Z,2.70
2022-11-04T06:59:19.391Z,4.15
2022-11-04T07:01:47.273Z,3.13
2022-11-04T07:04:14.149Z,3.35
2022-11-04T07:06:44.823Z,3.72
2022-11-04T07:09:15.081Z,3.33
2022-11-04T07:11:43.185Z,3.47
2022-11-04T07:14:10.634Z,4.10
2022-11-04T07:16:37.381Z,3.65
2022-11-04T07:19:04.916Z,3.53
2022-11-04T07:21:32.093Z,4.10
2022-11-04T07:23:58.860Z,4.05
2022-11-04T07:26:25.748Z,3.45
2022-11-04T07:28:52.721Z,3.35
2022-11-04T07:31:19.685Z,4.45
2022-11-04T07:33:51.238Z,4.22
2022-11-04T07:36:19.268Z,3.13
2022-11-04T07:38:46.799Z,4.18
2022-11-04T07:41:13.941Z,4.00
2022-11-04T07:43:40.742Z,3.08
2022-11-04T07:46:10.322Z,3.08
2022-11-04T07:48:37.737Z,3.15
2022-11-04T07:51:07.329Z,4.43
2022-11-04T07:53:34.758Z,4.93
2022-11-04T07:56:11.633Z,12.10
2022-11-04T07:58:38.460Z,13.10
2022-11-04T08:01:08.755Z,10.23
2022-11-04T08:03:36.779Z,9.05
2022-11-04T08:06:05.772Z,4.35
2022-11-04T08:08:33.089Z,4.25
2022-11-04T08:11:02.810Z,5.28
2022-11-04T08:13:31.581Z,5.20
2022-11-04T08:16:03.064Z,5.22
2022-11-04T08:18:32.464Z,4.32
2022-11-04T08:20:59.537Z,7.22
2022-11-04T08:23:26.340Z,5.22
2022-11-04T08:25:53.022Z,8.60
2022-11-04T08:28:19.755Z,9.10
2022-11-04T08:31:07.051Z,5.55
2022-11-04T08:33:36.008Z,4.43
2022-11-04T08:36:09.427Z,4.72
2022-11-04T08:38:36.762Z,6.05
2022-11-04T08:41:05.677Z,3.75
2022-11-04T08:43:34.300Z,5.70
2022-11-04T08:46:02.014Z,5.20
2022-11-04T08:48:28.753Z,3.90
2022-11-04T08:50:58.934Z,4.43
2022-11-04T08:53:26.109Z,17.67
2022-11-04T08:55:53.432Z,8.82
2022-11-04T08:58:20.882Z,4.40
2022-11-04T09:00:47.653Z,4.55
2022-11-04T09:03:14.338Z,4.32
2022-11-04T09:05:45.776Z,4.45
2022-11-04T09:08:16.736Z,3.72
2022-11-04T09:10:47.986Z,3.22
2022-11-04T09:13:15.996Z,3.03
2022-11-04T09:15:43.852Z,2.92
2022-11-04T09:18:11.074Z,2.85
2022-11-04T09:20:38.648Z,3.20
2022-11-04T09:23:06.471Z,3.15
2022-11-04T09:25:33.631Z,2.42
2022-11-04T09:28:00.484Z,2.90
2022-11-04T09:30:27.669Z,2.25
2022-11-04T09:32:54.513Z,4.78
2022-11-04T09:35:21.326Z,2.65
2022-11-04T09:37:47.999Z,2.92
2022-11-04T09:40:17.221Z,3.45
2022-11-04T09:42:52.857Z,5.45
2022-11-04T09:45:26.560Z,6.40
2022-11-04T09:47:58.449Z,4.30
2022-11-04T09:50:29.580Z,4.70
2022-11-04T09:53:09.847Z,4.80
2022-11-04T09:55:55.832Z,3.47
2022-11-04T09:58:22.705Z,4.30
2022-11-04T10:01:02.028Z,4.93
2022-11-04T10:03:53.660Z,6.13
2022-11-04T10:06:46.630Z,3.88
2022-11-04T10:09:13.908Z,3.13
2022-11-04T10:12:19.680Z,5.88
2022-11-04T10:15:10.998Z,4.57
2022-11-04T10:17:46.758Z,3.45
2022-11-04T10:20:52.654Z,2.97
2022-11-04T10:23:51.508Z,6.88
2022-11-04T10:26:32.241Z,4.53
2022-11-04T10:29:05.699Z,2.20
2022-11-04T10:31:37.090Z,4.82
2022-11-04T10:34:12.243Z,4.53
2022-11-04T10:36:40.810Z,3.55
2022-11-04T10:39:23.104Z,2.75
2022-11-04T10:41:49.813Z,4.28
2022-11-04T10:44:25.173Z,4.47
2022-11-04T10:46:59.637Z,10.23
2022-11-04T10:50:00.229Z,6.28
2022-11-04T10:52:32.204Z,5.10
2022-11-04T10:54:58.930Z,2.17
2022-11-04T10:57:25.976Z,5.22
2022-11-04T11:00:01.141Z,3.58
2022-11-04T11:02:36.876Z,3.03
2022-11-04T11:05:18.838Z,3.72
2022-11-04T11:07:47.345Z,1.75
2022-11-04T11:10:26.934Z,2.92
2022-11-04T11:13:02.230Z,5.25
2022-11-04T11:15:33.274Z,4.30
2022-11-04T11:18:18.429Z,1.45
2022-11-04T11:21:08.344Z,2.28
2022-11-04T11:23:47.207Z,2.83
2022-11-04T11:26:21.105Z,3.30
2022-11-04T11:29:02.374Z,2.40
2022-11-04T11:31:37.976Z,1.95
2022-11-04T11:34:13.105Z,3.30
2022-11-04T11:36:40.836Z,2.92
2022-11-04T11:39:19.158Z,5.20
2022-11-04T11:42:06.659Z,1.58
2022-11-04T11:44:42.153Z,3.78
2022-11-04T11:47:36.421Z,2.67
2022-11-04T11:50:18.009Z,3.80
2022-11-04T11:52:49.157Z,3.67
2022-11-04T11:55:18.505Z,1.30
2022-11-04T12:01:17.873Z,2.15
2022-11-04T12:10:24.060Z,2.25
2022-11-04T12:13:28.312Z,3.88
2022-11-04T12:16:21.099Z,4.33
2022-11-04T12:19:13.308Z,4.50
2022-11-04T12:21:54.905Z,2.55
2022-11-04T12:24:30.093Z,4.35
2022-11-04T12:27:11.766Z,6.60
2022-11-04T12:29:50.578Z,3.53
2022-11-04T12:32:28.094Z,1.77
2022-11-04T12:35:39.615Z,2.95
2022-11-04T12:38:27.871Z,2.15
2022-11-04T12:41:58.780Z,4.38
2022-11-04T12:44:45.718Z,4.10
2022-11-04T12:47:24.525Z,2.38
2022-11-04T12:50:09.741Z,2.22
2022-11-04T12:52:42.416Z,1.98
2022-11-04T12:55:27.057Z,2.37
2022-11-04T12:58:01.259Z,1.30
2022-11-04T13:00:31.077Z,2.28
2022-11-04T13:03:18.719Z,2.92
2022-11-04T13:06:16.296Z,3.83
2022-11-04T13:08:47.392Z,3.22
2022-11-04T13:11:26.485Z,2.45
2022-11-04T13:14:02.470Z,1.17
2022-11-04T13:16:31.672Z,2.95
2022-11-04T13:18:59.032Z,2.72
2022-11-04T13:21:28.522Z,2.03
2022-11-04T13:24:02.133Z,5.28
2022-11-04T13:29:08.935Z,2.35
2022-11-04T13:31:46.711Z,2.45
2022-11-04T13:34:33.062Z,3.03
2022-11-04T13:37:18.602Z,3.08
2022-11-04T13:39:51.758Z,6.05
2022-11-04T13:42:34.249Z,3.20
2022-11-04T13:45:10.557Z,2.17
2022-11-04T13:47:45.548Z,2.65
2022-11-04T13:50:36.212Z,3.17
2022-11-04T13:53:05.798Z,3.95
2022-11-04T13:55:35.366Z,5.03
2022-11-04T13:58:04.962Z,3.25
2022-11-04T14:00:32.913Z,1.90
2022-11-04T14:03:01.867Z,4.10
2022-11-04T14:05:28.835Z,3.22
2022-11-04T14:08:01.732Z,2.00
2022-11-04T14:10:37.911Z,1.50
2022-11-04T14:13:27.292Z,2.55
2022-11-04T14:16:33.074Z,9.35
2022-11-04T14:19:55.943Z,14.40
2022-11-04T14:22:29.604Z,3.90
2022-11-04T14:27:40.555Z,12.32
2022-11-04T14:30:32.905Z,5.47
2022-11-04T14:33:06.255Z,3.33
2022-11-04T14:35:34.262Z,1.63
2022-11-04T14:38:07.276Z,1.83
2022-11-04T14:41:12.613Z,3.08
2022-11-04T14:43:44.388Z,1.27
2022-11-04T14:46:17.782Z,3.15
2022-11-04T14:48:52.001Z,2.38
2022-11-04T14:51:40.156Z,2.55
2022-11-04T14:54:20.743Z,2.60
2022-11-04T14:56:47.641Z,4.97
2022-11-04T14:59:27.303Z,6.18
2022-11-04T15:01:55.131Z,3.80
2022-11-04T15:04:26.520Z,3.22
2022-11-04T15:06:57.936Z,3.90
2022-11-04T15:09:35.104Z,2.33
2022-11-04T15:12:30.789Z,2.08
2022-11-04T15:14:59.365Z,8.55
2022-11-04T15:17:30.895Z,4.07
2022-11-04T15:20:00.784Z,2.40
2022-11-04T15:22:29.142Z,2.65
2022-11-04T15:24:56.809Z,3.15
2022-11-04T15:27:29.909Z,1.20
2022-11-04T15:30:04.356Z,3.95
2022-11-04T15:32:32.104Z,10.20
2022-11-04T15:34:59.527Z,4.93
2022-11-04T15:37:28.959Z,5.60
2022-11-04T15:39:58.134Z,3.10
2022-11-04T15:42:39.639Z,4.22
2022-11-04T15:45:28.441Z,7.72
2022-11-04T15:48:29.174Z,5.25
2022-11-04T15:51:16.795Z,2.63
2022-11-04T15:53:54.711Z,2.90
2022-11-04T15:56:32.068Z,5.70
2022-11-04T15:59:00.508Z,4.85
2022-11-04T16:01:29.143Z,3.05
2022-11-04T16:03:58.624Z,4.07
2022-11-04T16:06:37.669Z,4.88
2022-11-04T16:09:09.285Z,5.63
2022-11-04T16:11:36.030Z,5.88
2022-11-04T16:14:22.651Z,6.60
2022-11-04T16:16:51.339Z,4.22
2022-11-04T16:19:23.492Z,4.30
2022-11-04T16:22:00.005Z,12.15
2022-11-04T16:24:36.766Z,15.70
2022-11-04T16:27:07.900Z,10.95
2022-11-04T16:29:37.414Z,9.27
2022-11-04T16:32:25.646Z,15.18
2022-11-04T16:34:55.816Z,8.35
2022-11-04T16:37:22.614Z,7.18
2022-11-04T16:39:49.969Z,6.30
2022-11-04T16:42:17.702Z,5.57
2022-11-04T16:44:49.608Z,6.93
2022-11-04T16:47:18.641Z,7.03
2022-11-04T16:49:45.935Z,6.53
2022-11-04T16:52:22.747Z,2.92
2022-11-04T16:54:49.412Z,3.78
2022-11-04T16:57:16.764Z,3.50
2022-11-04T16:59:43.983Z,4.75
2022-11-04T17:02:31.140Z,3.22
2022-11-04T17:04:58.721Z,4.50
2022-11-04T17:07:40.688Z,4.15
2022-11-04T17:10:30.843Z,6.63
2022-11-04T17:12:57.549Z,3.92
2022-11-04T17:15:24.270Z,4.53
2022-11-04T17:17:51.012Z,7.15
2022-11-04T17:20:18.307Z,5.57
2022-11-04T17:22:46.937Z,7.03
2022-11-04T17:25:20.641Z,5.47
2022-11-04T17:30:15.503Z,6.30
2022-11-04T17:32:43.257Z,7.70
2022-11-04T17:35:10.600Z,11.13
2022-11-04T17:37:37.676Z,18.60
2022-11-04T17:40:05.853Z,10.25
2022-11-04T17:42:51.103Z,8.30
2022-11-04T17:45:17.884Z,9.00
2022-11-04T17:47:44.574Z,7.03
2022-11-04T17:50:11.270Z,14.95
2022-11-04T17:52:38.600Z,14.85
2022-11-04T17:55:06.134Z,14.77
2022-11-04T17:57:35.584Z,4.43
2022-11-04T18:00:05.532Z,8.85
2022-11-04T18:02:33.032Z,4.50
2022-11-04T18:05:01.727Z,2.47
2022-11-04T18:07:29.602Z,5.03
2022-11-04T18:09:56.794Z,6.65
2022-11-04T18:12:39.670Z,17.92
2022-11-04T18:15:10.186Z,10.07
2022-11-04T18:17:38.713Z,5.38
2022-11-04T18:20:13.342Z,5.47
2022-11-04T18:22:41.065Z,4.78
2022-11-04T18:25:08.635Z,5.05
2022-11-04T18:27:35.903Z,5.80
2022-11-04T18:30:02.841Z,15.32
2022-11-04T18:32:29.492Z,13.07
2022-11-04T18:34:56.177Z,12.90
2022-11-04T18:37:23.869Z,5.73
2022-11-04T18:39:50.561Z,4.30
2022-11-04T18:42:17.241Z,4.65
2022-11-04T18:44:43.911Z,3.30
2022-11-04T18:47:10.601Z,2.22
2022-11-04T18:49:37.265Z,2.15
2022-11-04T18:52:03.944Z,2.38
2022-11-04T18:54:31.041Z,3.53
2022-11-04T18:56:57.710Z,1.98
2022-11-04T18:59:24.462Z,3.55
2022-11-04T19:01:53.002Z,2.72
2022-11-04T19:04:20.267Z,5.53
2022-11-04T19:06:46.955Z,8.13
2022-11-04T19:09:45.630Z,8.18
2022-11-04T19:12:21.387Z,7.85
2022-11-04T19:14:48.129Z,7.13
2022-11-04T19:17:14.944Z,8.52
2022-11-04T19:19:42.986Z,7.22
2022-11-04T19:22:10.547Z,6.82
2022-11-04T19:24:37.337Z,8.93
2022-11-04T19:27:04.568Z,3.83
2022-11-04T19:29:32.838Z,2.75
2022-11-04T19:32:01.155Z,3.05
2022-11-04T19:34:27.788Z,3.60
2022-11-04T19:36:54.568Z,6.03
2022-11-04T19:39:21.280Z,7.75
2022-11-04T19:42:06.876Z,9.18
2022-11-04T19:44:33.663Z,9.40
2022-11-04T19:47:00.347Z,6.82
2022-11-04T19:49:31.351Z,7.75
2022-11-04T19:51:59.085Z,7.72
2022-11-04T19:54:26.284Z,6.72
2022-11-04T19:56:53.131Z,6.90
2022-11-04T19:59:20.027Z,7.47
2022-11-04T20:01:47.045Z,7.53
2022-11-04T20:04:13.960Z,8.00
2022-11-04T20:06:40.867Z,8.52
2022-11-04T20:09:10.950Z,7.05
2022-11-04T20:11:59.360Z,5.53
2022-11-04T20:14:27.065Z,7.18
2022-11-04T20:16:53.827Z,7.13
2022-11-04T20:19:22.847Z,6.28
2022-11-04T20:21:50.571Z,11.35
2022-11-04T20:24:17.329Z,55.50
2022-11-04T20:26:46.597Z,36.25
2022-11-04T20:29:15.828Z,16.23
2022-11-04T20:31:42.899Z,14.80
2022-11-04T20:34:12.288Z,8.80
2022-11-04T20:36:39.596Z,8.40
2022-11-04T20:39:17.674Z,7.95
2022-11-04T20:41:44.844Z,7.18
2022-11-04T20:44:12.742Z,6.15
2022-11-04T20:46:39.670Z,5.85
2022-11-04T20:49:06.642Z,6.05
2022-11-04T20:51:36.217Z,7.47
2022-11-04T20:54:06.526Z,6.00
2022-11-04T20:56:35.889Z,5.25
2022-11-04T20:59:03.769Z,5.47
2022-11-04T21:01:33.359Z,5.40
2022-11-04T21:04:02.231Z,5.32
2022-11-04T21:06:29.476Z,5.07
2022-11-04T21:08:57.959Z,4.88
2022-11-04T21:11:31.237Z,6.90
2022-11-04T21:13:58.620Z,6.93
2022-11-04T21:16:25.793Z,5.97
2022-11-04T21:18:52.615Z,6.18
2022-11-04T21:21:19.440Z,6.95
2022-11-04T21:23:46.823Z,7.38
2022-11-04T21:26:23.017Z,5.70
2022-11-04T21:28:55.059Z,12.13
2022-11-04T21:31:22.200Z,6.72
2022-11-04T21:33:48.836Z,7.38
2022-11-04T21:36:15.621Z,9.43
2022-11-04T21:38:42.596Z,14.50
2022-11-04T21:41:18.844Z,6.10
2022-11-04T21:43:45.492Z,8.90
2022-11-04T21:46:16.132Z,9.35
2022-11-04T21:48:43.130Z,8.18
2022-11-04T21:51:15.692Z,9.95
2022-11-04T21:53:42.848Z,9.38
2022-11-04T21:56:18.728Z,7.80
2022-11-04T21:58:45.666Z,7.90
2022-11-04T22:01:18.663Z,7.80
2022-11-04T22:03:53.733Z,10.52
2022-11-04T22:06:20.922Z,7.82
2022-11-04T22:08:54.307Z,8.32
2022-11-04T22:11:26.468Z,7.57
2022-11-04T22:13:58.128Z,6.22
2022-11-04T22:16:27.566Z,5.13
2022-11-04T22:18:56.299Z,5.45
2022-11-04T22:21:24.590Z,5.80
2022-11-04T22:23:51.525Z,6.65
2022-11-04T22:26:21.407Z,7.88
2022-11-04T22:28:48.534Z,6.88
2022-11-04T22:31:20.977Z,8.70
2022-11-04T22:33:47.875Z,17.52
2022-11-04T22:36:14.651Z,15.30
2022-11-04T22:38:42.857Z,7.70
2022-11-04T22:41:13.181Z,4.13
2022-11-04T22:43:40.019Z,8.32
2022-11-04T22:46:14.177Z,5.43
2022-11-04T22:48:41.269Z,8.02
2022-11-04T22:51:09.277Z,14.10
2022-11-04T22:53:37.647Z,6.60
2022-11-04T22:56:06.549Z,5.88
2022-11-04T22:58:34.020Z,8.27
2022-11-04T23:01:06.561Z,7.65
2022-11-04T23:03:33.442Z,9.15
2022-11-04T23:06:02.566Z,8.23
2022-11-04T23:08:30.997Z,6.32
2022-11-04T23:11:19.200Z,5.05
2022-11-04T23:14:13.128Z,19.25
2022-11-04T23:17:04.137Z,5.90
2022-11-04T23:19:31.494Z,3.75
2022-11-04T23:22:16.736Z,3.70
2022-11-04T23:25:02.236Z,3.42
2022-11-04T23:27:47.681Z,4.00
2022-11-04T23:30:21.036Z,3.08
2022-11-04T23:33:08.660Z,2.72
2022-11-04T23:36:02.995Z,3.17
2022-11-04T23:38:30.468Z,3.22
2022-11-04T23:41:19.074Z,3.13
2022-11-04T23:43:46.531Z,2.90
2022-11-04T23:46:32.073Z,3.65
2022-11-04T23:49:17.801Z,4.65
2022-11-04T23:52:02.920Z,3.50
2022-11-04T23:54:48.754Z,2.90
2022-11-04T23:57:35.629Z,3.40
